Main page
METAR-TAF:

METAR-TAF

Airports :

Hohenfels, Germany

latitude: 49-13N, longitude: 011-50E, elevation: 442 m

Current weather observation

The report was made 23 minutes ago, at 11:57 UTC
Calm wind
Temperature 5°C
Humidity 81%
Pressure 1022 hPa
Visibility 10 km or more
Broken clouds at a height of 1600 ft
Overcast at a height of 2500 ft

METAR: ETIH 201157Z AUTO 00000KT 9999 BKN016 OVC025 05/02 A3017 RMK AO2 RAE57 SLP237 $

Time: 13:20 (12:20 UTC)


TAF: missing

Weather observations and forecasts of more than 4000 airports (METAR and TAF reports).

The available stations are represented by yellow and red dots on the map.

Hover mouse over dot to see the name of the station.

Then click to see weather observations and forecasts.

To change the map : click on the green buttons with a black cross to zoom in, on the green button with a dash to zoom out, or on the green arrows for adjacent maps.


METAR-TAF: